sensor_id;sensor_type;location;lat;lon;timestamp;pressure;altitude;pressure_sealevel;temperature;humidity
77631;BME280;66798;47.370;8.552;2023-12-20T06:49:23;97057.78;;;5.89;93.08
77631;BME280;66798;47.370;8.552;2023-12-20T06:51:49;97067.56;;;5.93;93.28
77631;BME280;66798;47.370;8.552;2023-12-20T06:54:14;97073.59;;;5.94;93.39
77631;BME280;66798;47.370;8.552;2023-12-20T06:56:40;97071.44;;;6.03;92.11
77631;BME280;66798;47.370;8.552;2023-12-20T06:59:06;97075.28;;;6.00;92.86
77631;BME280;66798;47.370;8.552;2023-12-20T07:01:32;97074.41;;;6.06;92.29
77631;BME280;66798;47.370;8.552;2023-12-20T07:03:57;97072.94;;;6.10;92.16
77631;BME280;66798;47.370;8.552;2023-12-20T07:06:23;97071.56;;;6.08;92.06
77631;BME280;66798;47.370;8.552;2023-12-20T07:08:49;97091.22;;;6.10;92.51
77631;BME280;66798;47.370;8.552;2023-12-20T07:11:14;97088.47;;;6.05;93.31
77631;BME280;66798;47.370;8.552;2023-12-20T07:13:40;97088.81;;;6.09;93.03
77631;BME280;66798;47.370;8.552;2023-12-20T07:16:05;97080.78;;;6.10;92.40
77631;BME280;66798;47.370;8.552;2023-12-20T07:18:31;97080.88;;;6.15;92.39
77631;BME280;66798;47.370;8.552;2023-12-20T07:20:56;97079.53;;;6.13;92.04
77631;BME280;66798;47.370;8.552;2023-12-20T07:23:22;97081.69;;;6.16;92.99
77631;BME280;66798;47.370;8.552;2023-12-20T07:25:47;97085.31;;;6.15;92.88
77631;BME280;66798;47.370;8.552;2023-12-20T07:28:13;97094.38;;;6.12;93.01
77631;BME280;66798;47.370;8.552;2023-12-20T07:30:38;97098.81;;;6.12;92.62
77631;BME280;66798;47.370;8.552;2023-12-20T07:33:04;97092.34;;;6.14;93.14
77631;BME280;66798;47.370;8.552;2023-12-20T07:35:30;97100.28;;;6.20;93.44
77631;BME280;66798;47.370;8.552;2023-12-20T07:37:55;97102.69;;;6.21;92.46
77631;BME280;66798;47.370;8.552;2023-12-20T07:40:21;97101.44;;;6.24;92.30
77631;BME280;66798;47.370;8.552;2023-12-20T07:42:46;97099.63;;;6.24;92.63
77631;BME280;66798;47.370;8.552;2023-12-20T07:45:12;97100.88;;;6.22;93.56
77631;BME280;66798;47.370;8.552;2023-12-20T07:47:37;97105.97;;;6.16;94.63
77631;BME280;66798;47.370;8.552;2023-12-20T07:50:03;97108.38;;;6.18;94.38
77631;BME280;66798;47.370;8.552;2023-12-20T07:52:29;97112.91;;;6.23;93.00
77631;BME280;66798;47.370;8.552;2023-12-20T07:54:54;97117.91;;;6.24;93.36
77631;BME280;66798;47.370;8.552;2023-12-20T07:57:20;97121.34;;;6.25;92.89
77631;BME280;66798;47.370;8.552;2023-12-20T07:59:46;97128.91;;;6.26;93.85
77631;BME280;66798;47.370;8.552;2023-12-20T08:02:12;97131.31;;;6.28;92.64
77631;BME280;66798;47.370;8.552;2023-12-20T08:04:37;97129.28;;;6.30;93.89
77631;BME280;66798;47.370;8.552;2023-12-20T08:07:03;97125.88;;;6.29;93.43
77631;BME280;66798;47.370;8.552;2023-12-20T08:09:29;97119.94;;;6.34;92.87
77631;BME280;66798;47.370;8.552;2023-12-20T08:11:55;97123.13;;;6.36;92.68
77631;BME280;66798;47.370;8.552;2023-12-20T08:14:20;97127.13;;;6.38;93.15
77631;BME280;66798;47.370;8.552;2023-12-20T08:16:46;97128.47;;;6.41;92.89
77631;BME280;66798;47.370;8.552;2023-12-20T08:19:11;97134.28;;;6.43;92.78
77631;BME280;66798;47.370;8.552;2023-12-20T08:21:37;97136.09;;;6.43;92.63
77631;BME280;66798;47.370;8.552;2023-12-20T08:24:03;97138.13;;;6.41;92.40
77631;BME280;66798;47.370;8.552;2023-12-20T08:26:28;97141.78;;;6.40;93.23
77631;BME280;66798;47.370;8.552;2023-12-20T08:28:54;97144.28;;;6.34;93.66
77631;BME280;66798;47.370;8.552;2023-12-20T08:31:19;97136.88;;;6.43;93.37
77631;BME280;66798;47.370;8.552;2023-12-20T08:33:47;97136.47;;;6.46;92.38
77631;BME280;66798;47.370;8.552;2023-12-20T08:36:14;97134.06;;;6.45;92.51
77631;BME280;66798;47.370;8.552;2023-12-20T08:38:40;97137.34;;;6.52;92.37
77631;BME280;66798;47.370;8.552;2023-12-20T08:41:07;97139.75;;;6.53;92.39
77631;BME280;66798;47.370;8.552;2023-12-20T08:43:34;97143.94;;;6.54;92.58
77631;BME280;66798;47.370;8.552;2023-12-20T08:46:00;97135.31;;;6.54;92.70
77631;BME280;66798;47.370;8.552;2023-12-20T08:48:26;97136.00;;;6.49;92.98
77631;BME280;66798;47.370;8.552;2023-12-20T08:50:51;97143.94;;;6.54;92.85
77631;BME280;66798;47.370;8.552;2023-12-20T08:53:18;97138.38;;;6.51;92.38
77631;BME280;66798;47.370;8.552;2023-12-20T08:55:44;97140.19;;;6.50;92.58
77631;BME280;66798;47.370;8.552;2023-12-20T08:58:10;97145.66;;;6.49;92.13
77631;BME280;66798;47.370;8.552;2023-12-20T09:00:35;97157.22;;;6.53;92.43
77631;BME280;66798;47.370;8.552;2023-12-20T09:03:01;97149.75;;;6.56;92.32
77631;BME280;66798;47.370;8.552;2023-12-20T09:05:27;97159.41;;;6.56;92.61
77631;BME280;66798;47.370;8.552;2023-12-20T09:07:53;97145.56;;;6.55;92.38
77631;BME280;66798;47.370;8.552;2023-12-20T09:10:19;97143.47;;;6.57;92.53
77631;BME280;66798;47.370;8.552;2023-12-20T09:12:51;97137.72;;;6.55;91.89
77631;BME280;66798;47.370;8.552;2023-12-20T09:15:22;97151.09;;;6.59;92.55
77631;BME280;66798;47.370;8.552;2023-12-20T09:17:48;97139.06;;;6.58;92.98
77631;BME280;66798;47.370;8.552;2023-12-20T09:20:13;97141.69;;;6.58;92.70
77631;BME280;66798;47.370;8.552;2023-12-20T09:22:39;97142.81;;;6.50;93.44
77631;BME280;66798;47.370;8.552;2023-12-20T09:25:05;97141.00;;;6.51;92.20
77631;BME280;66798;47.370;8.552;2023-12-20T09:27:30;97147.34;;;6.55;91.99
77631;BME280;66798;47.370;8.552;2023-12-20T09:29:56;97143.94;;;6.54;92.86
77631;BME280;66798;47.370;8.552;2023-12-20T09:32:22;97154.06;;;6.63;91.61
77631;BME280;66798;47.370;8.552;2023-12-20T09:34:47;97153.25;;;6.62;91.78
77631;BME280;66798;47.370;8.552;2023-12-20T09:37:13;97161.47;;;6.66;91.76
77631;BME280;66798;47.370;8.552;2023-12-20T09:39:39;97159.63;;;6.66;91.61
77631;BME280;66798;47.370;8.552;2023-12-20T09:42:06;97151.56;;;6.68;92.16
77631;BME280;66798;47.370;8.552;2023-12-20T09:44:33;97149.19;;;6.66;91.89
77631;BME280;66798;47.370;8.552;2023-12-20T09:47:02;97151.47;;;6.63;92.36
77631;BME280;66798;47.370;8.552;2023-12-20T09:49:29;97148.16;;;6.55;92.93
77631;BME280;66798;47.370;8.552;2023-12-20T09:51:55;97149.16;;;6.43;93.23
77631;BME280;66798;47.370;8.552;2023-12-20T09:54:22;97146.22;;;6.51;93.27
77631;BME280;66798;47.370;8.552;2023-12-20T09:56:49;97149.16;;;6.54;92.33
77631;BME280;66798;47.370;8.552;2023-12-20T09:59:15;97147.59;;;6.65;93.31
77631;BME280;66798;47.370;8.552;2023-12-20T10:01:42;97132.59;;;6.49;91.99
77631;BME280;66798;47.370;8.552;2023-12-20T10:04:10;97135.22;;;6.61;92.75
77631;BME280;66798;47.370;8.552;2023-12-20T10:06:39;97146.44;;;6.61;92.39
77631;BME280;66798;47.370;8.552;2023-12-20T10:09:05;97146.56;;;6.66;92.81
77631;BME280;66798;47.370;8.552;2023-12-20T10:11:31;97147.91;;;6.33;94.13
77631;BME280;66798;47.370;8.552;2023-12-20T10:14:00;97148.84;;;6.51;93.70
77631;BME280;66798;47.370;8.552;2023-12-20T10:16:27;97147.13;;;6.56;93.56
77631;BME280;66798;47.370;8.552;2023-12-20T10:18:53;97133.72;;;6.65;93.32
77631;BME280;66798;47.370;8.552;2023-12-20T10:21:19;97140.66;;;6.71;92.76
77631;BME280;66798;47.370;8.552;2023-12-20T10:23:45;97133.13;;;6.74;93.21
77631;BME280;66798;47.370;8.552;2023-12-20T10:26:19;97123.50;;;6.75;92.74
77631;BME280;66798;47.370;8.552;2023-12-20T10:28:45;97118.16;;;6.58;92.83
77631;BME280;66798;47.370;8.552;2023-12-20T10:31:10;97118.16;;;6.58;93.04
77631;BME280;66798;47.370;8.552;2023-12-20T10:33:50;97120.78;;;6.70;93.47
77631;BME280;66798;47.370;8.552;2023-12-20T10:36:16;97118.16;;;6.58;93.28
77631;BME280;66798;47.370;8.552;2023-12-20T10:38:42;97107.47;;;6.59;94.16
77631;BME280;66798;47.370;8.552;2023-12-20T10:41:09;97109.50;;;6.57;93.47
77631;BME280;66798;47.370;8.552;2023-12-20T10:43:36;97109.28;;;6.59;93.56
77631;BME280;66798;47.370;8.552;2023-12-20T10:46:03;97100.88;;;6.57;93.61
77631;BME280;66798;47.370;8.552;2023-12-20T10:48:30;97094.19;;;6.61;93.97
77631;BME280;66798;47.370;8.552;2023-12-20T10:50:57;97088.69;;;6.74;92.97
77631;BME280;66798;47.370;8.552;2023-12-20T10:53:25;97090.09;;;6.77;92.20
77631;BME280;66798;47.370;8.552;2023-12-20T10:55:52;97093.56;;;6.94;92.27
77631;BME280;66798;47.370;8.552;2023-12-20T10:58:22;97093.69;;;6.88;92.76
77631;BME280;66798;47.370;8.552;2023-12-20T11:01:00;97091.97;;;6.93;93.57
77631;BME280;66798;47.370;8.552;2023-12-20T11:03:32;97085.91;;;7.05;91.92
77631;BME280;66798;47.370;8.552;2023-12-20T11:06:08;97083.50;;;7.15;90.89
77631;BME280;66798;47.370;8.552;2023-12-20T11:08:47;97077.34;;;7.21;90.85
77631;BME280;66798;47.370;8.552;2023-12-20T11:11:21;97074.50;;;7.22;89.56
77631;BME280;66798;47.370;8.552;2023-12-20T11:14:03;97081.66;;;7.27;89.58
77631;BME280;66798;47.370;8.552;2023-12-20T11:16:37;97073.41;;;7.07;89.25
77631;BME280;66798;47.370;8.552;2023-12-20T11:19:06;97079.72;;;6.82;90.35
77631;BME280;66798;47.370;8.552;2023-12-20T11:21:32;97073.34;;;6.90;91.51
77631;BME280;66798;47.370;8.552;2023-12-20T11:23:59;97073.25;;;6.85;89.39
77631;BME280;66798;47.370;8.552;2023-12-20T11:26:29;97071.84;;;7.06;89.19
77631;BME280;66798;47.370;8.552;2023-12-20T11:29:29;97075.06;;;6.84;89.97
77631;BME280;66798;47.370;8.552;2023-12-20T11:31:56;97069.28;;;6.82;89.47
77631;BME280;66798;47.370;8.552;2023-12-20T11:34:21;97066.44;;;7.12;89.77
77631;BME280;66798;47.370;8.552;2023-12-20T11:36:47;97067.44;;;7.23;87.69
77631;BME280;66798;47.370;8.552;2023-12-20T11:39:21;97067.50;;;6.99;86.49
77631;BME280;66798;47.370;8.552;2023-12-20T11:41:48;97064.34;;;6.97;87.81
77631;BME280;66798;47.370;8.552;2023-12-20T11:44:17;97069.16;;;7.17;87.53
77631;BME280;66798;47.370;8.552;2023-12-20T11:46:44;97067.25;;;7.13;85.20
77631;BME280;66798;47.370;8.552;2023-12-20T11:49:09;97049.13;;;6.94;85.08
77631;BME280;66798;47.370;8.552;2023-12-20T11:51:35;97055.31;;;7.05;85.33
77631;BME280;66798;47.370;8.552;2023-12-20T11:54:00;97064.31;;;7.09;86.75
77631;BME280;66798;47.370;8.552;2023-12-20T11:56:26;97062.69;;;6.79;85.75
77631;BME280;66798;47.370;8.552;2023-12-20T11:58:51;97061.34;;;6.53;86.41
77631;BME280;66798;47.370;8.552;2023-12-20T12:01:19;97065.09;;;6.46;86.43
77631;BME280;66798;47.370;8.552;2023-12-20T12:03:46;97057.38;;;6.39;85.72
77631;BME280;66798;47.370;8.552;2023-12-20T12:06:12;97062.47;;;6.46;87.32
77631;BME280;66798;47.370;8.552;2023-12-20T12:08:38;97057.13;;;6.52;87.04
77631;BME280;66798;47.370;8.552;2023-12-20T12:11:03;97061.13;;;6.43;88.03
77631;BME280;66798;47.370;8.552;2023-12-20T12:13:29;97062.38;;;6.29;87.49
77631;BME280;66798;47.370;8.552;2023-12-20T12:15:55;97059.53;;;6.19;87.31
77631;BME280;66798;47.370;8.552;2023-12-20T12:18:20;97050.53;;;6.03;88.94
77631;BME280;66798;47.370;8.552;2023-12-20T12:20:47;97059.53;;;6.19;89.33
77631;BME280;66798;47.370;8.552;2023-12-20T12:23:12;97058.28;;;6.09;88.57
77631;BME280;66798;47.370;8.552;2023-12-20T12:25:38;97051.13;;;6.16;89.04
77631;BME280;66798;47.370;8.552;2023-12-20T12:28:03;97053.84;;;6.33;90.01
77631;BME280;66798;47.370;8.552;2023-12-20T12:30:29;97062.81;;;6.49;89.59
77631;BME280;66798;47.370;8.552;2023-12-20T12:32:56;97053.63;;;6.47;87.76
77631;BME280;66798;47.370;8.552;2023-12-20T12:35:23;97053.72;;;6.52;88.33
77631;BME280;66798;47.370;8.552;2023-12-20T12:37:48;97063.41;;;6.51;87.45
77631;BME280;66798;47.370;8.552;2023-12-20T12:40:16;97042.81;;;6.67;86.36
77631;BME280;66798;47.370;8.552;2023-12-20T12:42:43;97050.53;;;6.62;84.43
77631;BME280;66798;47.370;8.552;2023-12-20T12:45:11;97045.41;;;6.67;84.39
77631;BME280;66798;47.370;8.552;2023-12-20T12:47:40;97061.88;;;6.67;82.00
77631;BME280;66798;47.370;8.552;2023-12-20T12:50:05;97061.75;;;6.74;83.72
77631;BME280;66798;47.370;8.552;2023-12-20T12:52:31;97061.66;;;6.69;82.10
77631;BME280;66798;47.370;8.552;2023-12-20T12:54:57;97063.50;;;6.68;80.89
77631;BME280;66798;47.370;8.552;2023-12-20T12:57:23;97073.94;;;6.68;79.95
77631;BME280;66798;47.370;8.552;2023-12-20T12:59:49;97076.47;;;6.63;79.13
77631;BME280;66798;47.370;8.552;2023-12-20T13:02:16;97077.03;;;6.42;75.88
77631;BME280;66798;47.370;8.552;2023-12-20T13:04:41;97075.19;;;6.66;78.12
77631;BME280;66798;47.370;8.552;2023-12-20T13:07:08;97075.31;;;6.71;78.60
77631;BME280;66798;47.370;8.552;2023-12-20T13:09:36;97068.59;;;6.87;77.71
77631;BME280;66798;47.370;8.552;2023-12-20T13:12:02;97062.69;;;6.68;75.77
77631;BME280;66798;47.370;8.552;2023-12-20T13:14:31;97070.88;;;6.71;76.68
77631;BME280;66798;47.370;8.552;2023-12-20T13:16:58;97067.94;;;6.68;75.40
77631;BME280;66798;47.370;8.552;2023-12-20T13:19:23;97079.66;;;6.53;76.33
77631;BME280;66798;47.370;8.552;2023-12-20T13:21:49;97086.81;;;6.46;72.11
77631;BME280;66798;47.370;8.552;2023-12-20T13:24:14;97085.09;;;6.28;75.23
77631;BME280;66798;47.370;8.552;2023-12-20T13:26:40;97088.06;;;6.20;75.09
77631;BME280;66798;47.370;8.552;2023-12-20T13:29:05;97081.56;;;6.11;74.24
77631;BME280;66798;47.370;8.552;2023-12-20T13:31:31;97085.84;;;6.05;74.14
77631;BME280;66798;47.370;8.552;2023-12-20T13:33:56;97091.06;;;6.05;74.83
77631;BME280;66798;47.370;8.552;2023-12-20T13:36:22;97087.84;;;5.80;73.58
77631;BME280;66798;47.370;8.552;2023-12-20T13:38:47;97085.63;;;5.53;74.41
77631;BME280;66798;47.370;8.552;2023-12-20T13:41:13;97093.56;;;5.58;75.30
77631;BME280;66798;47.370;8.552;2023-12-20T13:43:38;97089.63;;;5.67;75.18
77631;BME280;66798;47.370;8.552;2023-12-20T13:46:04;97087.19;;;5.54;73.85
77631;BME280;66798;47.370;8.552;2023-12-20T13:48:29;97107.44;;;5.70;75.82
77631;BME280;66798;47.370;8.552;2023-12-20T13:50:55;97098.72;;;5.77;75.83
77631;BME280;66798;47.370;8.552;2023-12-20T13:53:20;97103.56;;;5.61;75.33
77631;BME280;66798;47.370;8.552;2023-12-20T13:55:46;97095.03;;;5.54;75.51
77631;BME280;66798;47.370;8.552;2023-12-20T13:58:11;97103.88;;;5.53;75.30
77631;BME280;66798;47.370;8.552;2023-12-20T14:00:37;97100.81;;;5.56;76.15
77631;BME280;66798;47.370;8.552;2023-12-20T14:03:04;97102.00;;;5.42;74.35
77631;BME280;66798;47.370;8.552;2023-12-20T14:05:29;97106.50;;;5.35;75.11
77631;BME280;66798;47.370;8.552;2023-12-20T14:07:55;97114.50;;;5.21;73.63
77631;BME280;66798;47.370;8.552;2023-12-20T14:10:23;97117.81;;;5.10;73.49
77631;BME280;66798;47.370;8.552;2023-12-20T14:12:52;97121.84;;;5.13;73.95
77631;BME280;66798;47.370;8.552;2023-12-20T14:15:17;97108.78;;;4.94;73.01
77631;BME280;66798;47.370;8.552;2023-12-20T14:17:43;97116.63;;;4.94;74.51
77631;BME280;66798;47.370;8.552;2023-12-20T14:20:08;97122.63;;;4.95;73.35
77631;BME280;66798;47.370;8.552;2023-12-20T14:22:35;97117.28;;;5.08;73.63
77631;BME280;66798;47.370;8.552;2023-12-20T14:25:01;97125.66;;;5.10;73.40
77631;BME280;66798;47.370;8.552;2023-12-20T14:27:27;97138.84;;;4.97;71.42
77631;BME280;66798;47.370;8.552;2023-12-20T14:29:55;97136.38;;;5.02;71.52
77631;BME280;66798;47.370;8.552;2023-12-20T14:32:21;97141.59;;;5.02;71.29
77631;BME280;66798;47.370;8.552;2023-12-20T14:34:46;97137.22;;;4.96;71.11
77631;BME280;66798;47.370;8.552;2023-12-20T14:37:12;97139.44;;;4.99;69.46
77631;BME280;66798;47.370;8.552;2023-12-20T14:39:38;97132.13;;;4.89;70.34
77631;BME280;66798;47.370;8.552;2023-12-20T14:42:10;97139.34;;;4.87;71.15
77631;BME280;66798;47.370;8.552;2023-12-20T14:44:40;97132.97;;;4.83;71.11
77631;BME280;66798;47.370;8.552;2023-12-20T14:47:06;97124.28;;;4.89;71.29
77631;BME280;66798;47.370;8.552;2023-12-20T14:49:32;97131.38;;;4.82;71.94
77631;BME280;66798;47.370;8.552;2023-12-20T14:51:58;97127.41;;;4.79;71.59
77631;BME280;66798;47.370;8.552;2023-12-20T14:54:24;97132.03;;;4.77;72.33
77631;BME280;66798;47.370;8.552;2023-12-20T14:56:50;97128.41;;;4.78;71.35
77631;BME280;66798;47.370;8.552;2023-12-20T14:59:15;97134.00;;;4.82;72.45
77631;BME280;66798;47.370;8.552;2023-12-20T15:01:41;97122.84;;;4.75;71.96
77631;BME280;66798;47.370;8.552;2023-12-20T15:04:08;97137.94;;;4.66;71.58
77631;BME280;66798;47.370;8.552;2023-12-20T15:06:33;97138.44;;;4.56;73.27
77631;BME280;66798;47.370;8.552;2023-12-20T15:08:59;97145.06;;;4.52;72.76
77631;BME280;66798;47.370;8.552;2023-12-20T15:11:25;97149.09;;;4.48;72.90
77631;BME280;66798;47.370;8.552;2023-12-20T15:13:51;97152.63;;;4.60;72.76
77631;BME280;66798;47.370;8.552;2023-12-20T15:16:24;97145.88;;;4.53;74.17
77631;BME280;66798;47.370;8.552;2023-12-20T15:18:51;97152.06;;;4.58;73.01
77631;BME280;66798;47.370;8.552;2023-12-20T15:21:17;97142.91;;;4.49;73.31
77631;BME280;66798;47.370;8.552;2023-12-20T15:23:43;97145.41;;;4.62;73.42
77631;BME280;66798;47.370;8.552;2023-12-20T15:26:18;97138.59;;;4.61;73.45
77631;BME280;66798;47.370;8.552;2023-12-20T15:28:44;97124.63;;;4.56;73.22
77631;BME280;66798;47.370;8.552;2023-12-20T15:31:10;97133.72;;;4.46;73.22
77631;BME280;66798;47.370;8.552;2023-12-20T15:33:35;97132.50;;;4.49;73.42
77631;BME280;66798;47.370;8.552;2023-12-20T15:36:01;97135.84;;;4.56;73.22
77631;BME280;66798;47.370;8.552;2023-12-20T15:38:26;97130.06;;;4.29;71.39
77631;BME280;66798;47.370;8.552;2023-12-20T15:40:51;97132.53;;;4.42;72.31
77631;BME280;66798;47.370;8.552;2023-12-20T15:43:17;97126.59;;;4.35;72.05
77631;BME280;66798;47.370;8.552;2023-12-20T15:45:42;97129.34;;;4.40;70.45
77631;BME280;66798;47.370;8.552;2023-12-20T15:48:08;97126.00;;;4.33;72.67
77631;BME280;66798;47.370;8.552;2023-12-20T15:50:36;97120.28;;;4.24;72.65
77631;BME280;66798;47.370;8.552;2023-12-20T15:53:02;97132.09;;;4.27;71.90
77631;BME280;66798;47.370;8.552;2023-12-20T15:55:28;97135.84;;;4.31;71.24
77631;BME280;66798;47.370;8.552;2023-12-20T15:57:54;97144.19;;;4.40;72.50
77631;BME280;66798;47.370;8.552;2023-12-20T16:00:19;97142.81;;;4.37;70.54
77631;BME280;66798;47.370;8.552;2023-12-20T16:02:45;97149.59;;;4.38;71.24
77631;BME280;66798;47.370;8.552;2023-12-20T16:05:13;97151.22;;;4.39;71.46
77631;BME280;66798;47.370;8.552;2023-12-20T16:07:38;97143.25;;;4.34;70.88
77631;BME280;66798;47.370;8.552;2023-12-20T16:10:04;97149.47;;;4.26;71.59
77631;BME280;66798;47.370;8.552;2023-12-20T16:12:30;97141.44;;;4.35;71.63
77631;BME280;66798;47.370;8.552;2023-12-20T16:14:55;97152.19;;;4.38;71.37
77631;BME280;66798;47.370;8.552;2023-12-20T16:17:21;97148.44;;;4.34;71.91
77631;BME280;66798;47.370;8.552;2023-12-20T16:19:46;97148.66;;;4.33;71.06
77631;BME280;66798;47.370;8.552;2023-12-20T16:22:12;97165.06;;;4.33;72.07
77631;BME280;66798;47.370;8.552;2023-12-20T16:24:37;97159.22;;;4.38;74.62
77631;BME280;66798;47.370;8.552;2023-12-20T16:27:03;97150.97;;;4.41;73.30
77631;BME280;66798;47.370;8.552;2023-12-20T16:29:28;97158.53;;;4.24;72.11
77631;BME280;66798;47.370;8.552;2023-12-20T16:31:54;97149.56;;;4.20;71.31
77631;BME280;66798;47.370;8.552;2023-12-20T16:34:19;97147.53;;;4.22;73.40
77631;BME280;66798;47.370;8.552;2023-12-20T16:36:53;97139.06;;;4.26;73.77
77631;BME280;66798;47.370;8.552;2023-12-20T16:39:23;97141.91;;;4.25;72.14
77631;BME280;66798;47.370;8.552;2023-12-20T16:41:49;97141.47;;;4.28;72.62
77631;BME280;66798;47.370;8.552;2023-12-20T16:44:15;97149.72;;;4.25;73.18
77631;BME280;66798;47.370;8.552;2023-12-20T16:46:41;97161.19;;;4.17;72.86
77631;BME280;66798;47.370;8.552;2023-12-20T16:49:07;97162.16;;;4.23;72.13
77631;BME280;66798;47.370;8.552;2023-12-20T16:51:33;97167.63;;;4.15;72.54
77631;BME280;66798;47.370;8.552;2023-12-20T16:53:59;97176.84;;;4.11;72.61
77631;BME280;66798;47.370;8.552;2023-12-20T16:56:25;97171.19;;;4.20;73.78
77631;BME280;66798;47.370;8.552;2023-12-20T16:58:50;97169.22;;;4.16;73.44
77631;BME280;66798;47.370;8.552;2023-12-20T17:01:16;97169.47;;;4.08;71.84
77631;BME280;66798;47.370;8.552;2023-12-20T17:03:41;97160.38;;;4.17;76.35
77631;BME280;66798;47.370;8.552;2023-12-20T17:06:07;97159.59;;;4.16;74.34
77631;BME280;66798;47.370;8.552;2023-12-20T17:08:33;97151.19;;;4.14;74.97
77631;BME280;66798;47.370;8.552;2023-12-20T17:10:59;97158.63;;;4.11;73.88
77631;BME280;66798;47.370;8.552;2023-12-20T17:13:25;97160.44;;;4.10;73.50
77631;BME280;66798;47.370;8.552;2023-12-20T17:15:51;97158.47;;;4.06;74.79
77631;BME280;66798;47.370;8.552;2023-12-20T17:18:16;97160.31;;;3.98;72.62
77631;BME280;66798;47.370;8.552;2023-12-20T17:20:42;97161.75;;;3.94;73.34
77631;BME280;66798;47.370;8.552;2023-12-20T17:23:07;97165.28;;;4.00;74.44
77631;BME280;66798;47.370;8.552;2023-12-20T17:25:33;97161.72;;;4.01;74.47
77631;BME280;66798;47.370;8.552;2023-12-20T17:28:04;97148.84;;;4.06;73.86
77631;BME280;66798;47.370;8.552;2023-12-20T17:30:29;97149.31;;;3.96;74.44
77631;BME280;66798;47.370;8.552;2023-12-20T17:32:55;97152.88;;;4.02;76.36
77631;BME280;66798;47.370;8.552;2023-12-20T17:35:20;97170.09;;;4.03;74.34
77631;BME280;66798;47.370;8.552;2023-12-20T17:37:46;97178.91;;;4.02;74.01
77631;BME280;66798;47.370;8.552;2023-12-20T17:40:11;97172.75;;;3.96;73.86
77631;BME280;66798;47.370;8.552;2023-12-20T17:42:37;97169.91;;;3.98;75.92
77631;BME280;66798;47.370;8.552;2023-12-20T17:45:02;97164.97;;;3.90;72.42
77631;BME280;66798;47.370;8.552;2023-12-20T17:47:28;97167.53;;;3.96;75.97
77631;BME280;66798;47.370;8.552;2023-12-20T17:49:53;97182.72;;;3.99;74.49
77631;BME280;66798;47.370;8.552;2023-12-20T17:52:19;97184.97;;;3.96;73.72
77631;BME280;66798;47.370;8.552;2023-12-20T17:54:44;97175.53;;;3.95;74.64
77631;BME280;66798;47.370;8.552;2023-12-20T17:57:10;97180.91;;;4.00;74.48
77631;BME280;66798;47.370;8.552;2023-12-20T17:59:35;97187.50;;;4.02;73.45
77631;BME280;66798;47.370;8.552;2023-12-20T18:02:01;97184.16;;;3.95;73.81
77631;BME280;66798;47.370;8.552;2023-12-20T18:04:27;97187.13;;;3.99;74.92
77631;BME280;66798;47.370;8.552;2023-12-20T18:06:53;97188.34;;;3.96;76.38
77631;BME280;66798;47.370;8.552;2023-12-20T18:09:18;97201.53;;;4.01;74.77
77631;BME280;66798;47.370;8.552;2023-12-20T18:11:44;97193.75;;;3.95;72.05
77631;BME280;66798;47.370;8.552;2023-12-20T18:14:09;97191.56;;;3.98;72.27
77631;BME280;66798;47.370;8.552;2023-12-20T18:16:35;97189.72;;;4.06;75.46
77631;BME280;66798;47.370;8.552;2023-12-20T18:19:01;97194.91;;;4.06;73.25
77631;BME280;66798;47.370;8.552;2023-12-20T18:21:26;97198.47;;;4.11;74.08
77631;BME280;66798;47.370;8.552;2023-12-20T18:23:52;97192.03;;;4.14;72.26
77631;BME280;66798;47.370;8.552;2023-12-20T18:26:18;97189.13;;;4.03;73.95
77631;BME280;66798;47.370;8.552;2023-12-20T18:28:44;97199.72;;;4.02;75.57
77631;BME280;66798;47.370;8.552;2023-12-20T18:31:09;97193.34;;;3.98;74.07
77631;BME280;66798;47.370;8.552;2023-12-20T18:33:35;97193.56;;;3.96;73.54
77631;BME280;66798;47.370;8.552;2023-12-20T18:36:02;97196.41;;;3.88;73.58
77631;BME280;66798;47.370;8.552;2023-12-20T18:38:28;97193.41;;;3.91;74.87
77631;BME280;66798;47.370;8.552;2023-12-20T18:40:56;97198.78;;;3.96;72.86
77631;BME280;66798;47.370;8.552;2023-12-20T18:43:21;97199.00;;;3.88;73.84
77631;BME280;66798;47.370;8.552;2023-12-20T18:45:49;97202.19;;;3.90;73.04
77631;BME280;66798;47.370;8.552;2023-12-20T18:48:14;97201.72;;;4.00;73.27
77631;BME280;66798;47.370;8.552;2023-12-20T18:50:39;97200.75;;;4.01;72.96
77631;BME280;66798;47.370;8.552;2023-12-20T18:53:05;97202.09;;;4.10;72.98
77631;BME280;66798;47.370;8.552;2023-12-20T18:55:30;97201.28;;;4.10;72.79
77631;BME280;66798;47.370;8.552;2023-12-20T18:57:56;97205.06;;;4.14;75.57
77631;BME280;66798;47.370;8.552;2023-12-20T19:00:22;97207.66;;;4.14;73.60
77631;BME280;66798;47.370;8.552;2023-12-20T19:02:47;97209.28;;;4.15;72.74
77631;BME280;66798;47.370;8.552;2023-12-20T19:05:13;97212.25;;;4.18;74.10
77631;BME280;66798;47.370;8.552;2023-12-20T19:07:38;97214.28;;;4.10;72.97
77631;BME280;66798;47.370;8.552;2023-12-20T19:10:04;97215.03;;;4.17;72.78
77631;BME280;66798;47.370;8.552;2023-12-20T19:12:31;97213.81;;;4.19;73.82
77631;BME280;66798;47.370;8.552;2023-12-20T19:14:56;97218.72;;;4.09;73.29
77631;BME280;66798;47.370;8.552;2023-12-20T19:17:22;97215.63;;;4.19;72.82
77631;BME280;66798;47.370;8.552;2023-12-20T19:19:47;97217.50;;;4.12;71.68
77631;BME280;66798;47.370;8.552;2023-12-20T19:22:13;97210.41;;;4.25;71.93
77631;BME280;66798;47.370;8.552;2023-12-20T19:24:39;97206.41;;;4.23;70.61
77631;BME280;66798;47.370;8.552;2023-12-20T19:27:05;97206.38;;;4.30;71.44
77631;BME280;66798;47.370;8.552;2023-12-20T19:29:30;97202.41;;;4.20;71.26
77631;BME280;66798;47.370;8.552;2023-12-20T19:31:56;97210.41;;;4.25;70.58
77631;BME280;66798;47.370;8.552;2023-12-20T19:34:21;97206.22;;;4.24;70.63
77631;BME280;66798;47.370;8.552;2023-12-20T19:36:47;97196.59;;;4.25;71.55
77631;BME280;66798;47.370;8.552;2023-12-20T19:39:13;97184.00;;;4.22;69.87
77631;BME280;66798;47.370;8.552;2023-12-20T19:41:38;97179.59;;;4.22;69.31
77631;BME280;66798;47.370;8.552;2023-12-20T19:44:04;97173.81;;;4.14;70.67
77631;BME280;66798;47.370;8.552;2023-12-20T19:46:31;97174.41;;;4.16;70.14
77631;BME280;66798;47.370;8.552;2023-12-20T19:48:57;97175.75;;;4.25;71.24
77631;BME280;66798;47.370;8.552;2023-12-20T19:51:23;97174.16;;;4.24;70.93
77631;BME280;66798;47.370;8.552;2023-12-20T19:53:48;97179.69;;;4.34;69.94